sensor_id;sensor_type;location;lat;lon;timestamp;pressure;altitude;pressure_sealevel;temperature;humidity
74437;BME280;62868;52.360;30.424;2022-12-07T00:04:56;1030.7;;;-5.1;57
74437;BME280;62868;52.360;30.424;2022-12-07T00:09:30;1030.7;;;-5.1;57
74437;BME280;62868;52.360;30.424;2022-12-07T00:14:44;1030.7;;;-5.2;56.9
74437;BME280;62868;52.360;30.424;2022-12-07T00:19:22;1030.7;;;-5.2;56.9
74437;BME280;62868;52.360;30.424;2022-12-07T00:24:54;1030.6;;;-5.3;56.9
74437;BME280;62868;52.360;30.424;2022-12-07T00:29:32;1030.5;;;-5.3;56.9
74437;BME280;62868;52.360;30.424;2022-12-07T00:34:42;1030.4;;;-5.4;56.9
74437;BME280;62868;52.360;30.424;2022-12-07T00:39:28;1030.4;;;-5.5;56.9
74437;BME280;62868;52.360;30.424;2022-12-07T00:44:30;1030.3;;;-5.5;56.9
74437;BME280;62868;52.360;30.424;2022-12-07T00:49:44;1030.2;;;-5.5;56.8
74437;BME280;62868;52.360;30.424;2022-12-07T00:54:40;1030.1;;;-5.5;56.8
74437;BME280;62868;52.360;30.424;2022-12-07T00:59:44;1030;;;-5.5;56.8
74437;BME280;62868;52.360;30.424;2022-12-07T01:04:42;1029.9;;;-5.5;56.7
74437;BME280;62868;52.360;30.424;2022-12-07T01:09:14;1029.9;;;-5.5;56.6
74437;BME280;62868;52.360;30.424;2022-12-07T01:14:58;1029.7;;;-5.3;56.5
74437;BME280;62868;52.360;30.424;2022-12-07T01:19:58;1029.6;;;-5.1;56.3
74437;BME280;62868;52.360;30.424;2022-12-07T01:24:32;1029.6;;;-5;56.2
74437;BME280;62868;52.360;30.424;2022-12-07T01:29:46;1029.5;;;-4.9;56.1
74437;BME280;62868;52.360;30.424;2022-12-07T01:34:24;1029.4;;;-4.8;56
74437;BME280;62868;52.360;30.424;2022-12-07T01:39:56;1029.3;;;-4.6;56
74437;BME280;62868;52.360;30.424;2022-12-07T01:45:15;1029.3;;;-4.5;55.9
74437;BME280;62868;52.360;30.424;2022-12-07T01:49:26;1029.3;;;-4.4;55.8
74437;BME280;62868;52.360;30.424;2022-12-07T01:54:24;1029.2;;;-4.3;55.7
74437;BME280;62868;52.360;30.424;2022-12-07T01:59:36;1029.1;;;-4.2;55.7
74437;BME280;62868;52.360;30.424;2022-12-07T02:04:38;1029.1;;;-4.1;55.7
74437;BME280;62868;52.360;30.424;2022-12-07T02:09:38;1029;;;-4;55.7
74437;BME280;62868;52.360;30.424;2022-12-07T02:14:46;1028.9;;;-3.9;55.6
74437;BME280;62868;52.360;30.424;2022-12-07T02:19:50;1028.9;;;-3.9;55.5
74437;BME280;62868;52.360;30.424;2022-12-07T02:24:15;1028.8;;;-3.8;55.5
74437;BME280;62868;52.360;30.424;2022-12-07T02:29:57;1028.8;;;-3.7;55.4
74437;BME280;62868;52.360;30.424;2022-12-07T02:35:00;1028.8;;;-3.6;55.4
74437;BME280;62868;52.360;30.424;2022-12-07T02:39:33;1028.8;;;-3.5;55.4
74437;BME280;62868;52.360;30.424;2022-12-07T02:44:44;1028.8;;;-3.3;55.4
74437;BME280;62868;52.360;30.424;2022-12-07T02:49:14;1028.8;;;-3.2;55.4
74437;BME280;62868;52.360;30.424;2022-12-07T02:54:56;1028.7;;;-3.2;55.4
74437;BME280;62868;52.360;30.424;2022-12-07T02:59:39;1028.7;;;-3.1;55.4
74437;BME280;62868;52.360;30.424;2022-12-07T03:04:48;1028.7;;;-3;55.4
74437;BME280;62868;52.360;30.424;2022-12-07T03:09:35;1028.6;;;-3;55.4
74437;BME280;62868;52.360;30.424;2022-12-07T03:14:15;1028.6;;;-2.9;55.4
74437;BME280;62868;52.360;30.424;2022-12-07T03:19:44;1028.4;;;-2.9;55.4
74437;BME280;62868;52.360;30.424;2022-12-07T03:24:45;1028.3;;;-2.9;55.4
74437;BME280;62868;52.360;30.424;2022-12-07T03:29:27;1028.3;;;-2.9;55.4
74437;BME280;62868;52.360;30.424;2022-12-07T03:34:45;1028.2;;;-2.8;55.4
74437;BME280;62868;52.360;30.424;2022-12-07T03:39:17;1028.2;;;-2.8;55.3
74437;BME280;62868;52.360;30.424;2022-12-07T03:44:58;1028.1;;;-2.8;55.3
74437;BME280;62868;52.360;30.424;2022-12-07T03:49:59;1028;;;-2.8;55.3
74437;BME280;62868;52.360;30.424;2022-12-07T03:54:23;1027.9;;;-2.7;55.3
74437;BME280;62868;52.360;30.424;2022-12-07T03:59:38;1027.9;;;-2.7;55.3
74437;BME280;62868;52.360;30.424;2022-12-07T04:04:26;1027.8;;;-2.7;55.2
74437;BME280;62868;52.360;30.424;2022-12-07T04:09:36;1027.8;;;-2.7;55.2
74437;BME280;62868;52.360;30.424;2022-12-07T04:14:58;1027.8;;;-2.6;55.2
74437;BME280;62868;52.360;30.424;2022-12-07T04:19:34;1027.8;;;-2.6;55.2
74437;BME280;62868;52.360;30.424;2022-12-07T04:25:00;1027.7;;;-2.6;55.2
74437;BME280;62868;52.360;30.424;2022-12-07T04:29:34;1027.7;;;-2.6;55.2
74437;BME280;62868;52.360;30.424;2022-12-07T04:34:44;1027.6;;;-2.6;55.2
74437;BME280;62868;52.360;30.424;2022-12-07T04:39:54;1027.6;;;-2.6;55.3
74437;BME280;62868;52.360;30.424;2022-12-07T04:44:58;1027.5;;;-2.5;55.3
74437;BME280;62868;52.360;30.424;2022-12-07T04:49:58;1027.4;;;-2.4;55.2
74437;BME280;62868;52.360;30.424;2022-12-07T04:54:24;1027.4;;;-2.5;55.2
74437;BME280;62868;52.360;30.424;2022-12-07T04:59:48;1027.4;;;-2.5;55.2
74437;BME280;62868;52.360;30.424;2022-12-07T05:04:38;1027.4;;;-2.5;55.2
74437;BME280;62868;52.360;30.424;2022-12-07T05:09:48;1027.3;;;-2.5;55.2
74437;BME280;62868;52.360;30.424;2022-12-07T05:14:32;1027.4;;;-2.6;55.2
74437;BME280;62868;52.360;30.424;2022-12-07T05:19:14;1027.3;;;-2.6;55.2
74437;BME280;62868;52.360;30.424;2022-12-07T05:24:34;1027.2;;;-2.6;55.2
74437;BME280;62868;52.360;30.424;2022-12-07T05:29:58;1027.2;;;-2.6;55.3
74437;BME280;62868;52.360;30.424;2022-12-07T05:34:34;1027.2;;;-2.7;55.3
74437;BME280;62868;52.360;30.424;2022-12-07T05:39:56;1027.2;;;-2.7;55.3
74437;BME280;62868;52.360;30.424;2022-12-07T05:44:26;1027.2;;;-2.7;55.3
74437;BME280;62868;52.360;30.424;2022-12-07T05:49:46;1027.2;;;-2.7;55.3
74437;BME280;62868;52.360;30.424;2022-12-07T05:54:48;1027.2;;;-2.7;55.3
74437;BME280;62868;52.360;30.424;2022-12-07T05:59:56;1027.2;;;-2.7;55.4
74437;BME280;62868;52.360;30.424;2022-12-07T06:04:54;1027.2;;;-2.7;55.4
74437;BME280;62868;52.360;30.424;2022-12-07T06:09:25;1027.1;;;-2.7;55.4
74437;BME280;62868;52.360;30.424;2022-12-07T06:14:42;1027.1;;;-2.7;55.4
74437;BME280;62868;52.360;30.424;2022-12-07T06:19:38;1027.1;;;-2.7;55.5
74437;BME280;62868;52.360;30.424;2022-12-07T06:24:50;1027.1;;;-2.6;55.4
74437;BME280;62868;52.360;30.424;2022-12-07T06:29:36;1027;;;-2.7;55.5
74437;BME280;62868;52.360;30.424;2022-12-07T06:34:15;1027.1;;;-2.6;55.5
74437;BME280;62868;52.360;30.424;2022-12-07T06:39:38;1027.1;;;-2.5;55.5
74437;BME280;62868;52.360;30.424;2022-12-07T06:44:58;1027.1;;;-2.6;55.5
74437;BME280;62868;52.360;30.424;2022-12-07T06:49:34;1027;;;-2.6;55.7
74437;BME280;62868;52.360;30.424;2022-12-07T06:54:56;1026.9;;;-2.6;55.8
74437;BME280;62868;52.360;30.424;2022-12-07T06:59:22;1026.8;;;-2.6;55.8
74437;BME280;62868;52.360;30.424;2022-12-07T07:04:44;1026.8;;;-2.6;55.9
74437;BME280;62868;52.360;30.424;2022-12-07T07:09:46;1026.8;;;-2.6;56.1
74437;BME280;62868;52.360;30.424;2022-12-07T07:14:56;1026.8;;;-2.6;56.1
74437;BME280;62868;52.360;30.424;2022-12-07T07:19:56;1026.8;;;-2.6;56.3
74437;BME280;62868;52.360;30.424;2022-12-07T07:24:32;1026.8;;;-2.7;56.5
74437;BME280;62868;52.360;30.424;2022-12-07T07:29:58;1026.7;;;-2.7;56.6
74437;BME280;62868;52.360;30.424;2022-12-07T07:34:39;1026.7;;;-2.7;56.8
74437;BME280;62868;52.360;30.424;2022-12-07T07:39:36;1026.6;;;-2.6;56.8
74437;BME280;62868;52.360;30.424;2022-12-07T07:44:32;1026.7;;;-2.5;56.8
74437;BME280;62868;52.360;30.424;2022-12-07T07:49:24;1026.6;;;-2.4;56.8
74437;BME280;62868;52.360;30.424;2022-12-07T07:54:34;1026.6;;;-2.3;56.9
74437;BME280;62868;52.360;30.424;2022-12-07T07:59:58;1026.6;;;-2.3;57.1
74437;BME280;62868;52.360;30.424;2022-12-07T08:04:36;1026.6;;;-2.4;57.3
74437;BME280;62868;52.360;30.424;2022-12-07T08:09:56;1026.5;;;-2.4;57.4
74437;BME280;62868;52.360;30.424;2022-12-07T08:14:12;1026.5;;;-2.3;57.5
74437;BME280;62868;52.360;30.424;2022-12-07T08:19:44;1026.5;;;-2.2;57.5
74437;BME280;62868;52.360;30.424;2022-12-07T08:24:48;1026.5;;;-2.2;57.6
74437;BME280;62868;52.360;30.424;2022-12-07T08:29:58;1026.5;;;-2.2;57.8
74437;BME280;62868;52.360;30.424;2022-12-07T08:34:46;1026.5;;;-2.2;57.9
74437;BME280;62868;52.360;30.424;2022-12-07T08:39:24;1026.4;;;-2.2;57.9
74437;BME280;62868;52.360;30.424;2022-12-07T08:44:48;1026.3;;;-2.1;58
74437;BME280;62868;52.360;30.424;2022-12-07T08:49:15;1026.2;;;-2;58
74437;BME280;62868;52.360;30.424;2022-12-07T08:54:50;1026.2;;;-1.9;58
74437;BME280;62868;52.360;30.424;2022-12-07T08:59:34;1026;;;-1.8;58
74437;BME280;62868;52.360;30.424;2022-12-07T09:04:14;1026;;;-1.7;58
74437;BME280;62868;52.360;30.424;2022-12-07T09:09:35;1025.9;;;-1.8;58.3
74437;BME280;62868;52.360;30.424;2022-12-07T09:14:56;1025.9;;;-1.9;58.5
74437;BME280;62868;52.360;30.424;2022-12-07T09:19:44;1025.8;;;-1.9;58.6
74437;BME280;62868;52.360;30.424;2022-12-07T09:24:58;1025.8;;;-2;58.8
74437;BME280;62868;52.360;30.424;2022-12-07T09:29:24;1025.7;;;-2;59
74437;BME280;62868;52.360;30.424;2022-12-07T09:34:44;1025.6;;;-2;59.1
74437;BME280;62868;52.360;30.424;2022-12-07T09:39:56;1025.5;;;-1.9;59
74437;BME280;62868;52.360;30.424;2022-12-07T09:44:44;1025.4;;;-1.8;59.1
74437;BME280;62868;52.360;30.424;2022-12-07T09:50:00;1025.4;;;-1.7;59.1
74437;BME280;62868;52.360;30.424;2022-12-07T09:54:24;1025.4;;;-1.5;59
74437;BME280;62868;52.360;30.424;2022-12-07T09:59:46;1025.4;;;-1.2;58.9
74437;BME280;62868;52.360;30.424;2022-12-07T10:04:15;1025.3;;;-1;58.7
74437;BME280;62868;52.360;30.424;2022-12-07T10:09:48;1025.3;;;-1.1;58.8
74437;BME280;62868;52.360;30.424;2022-12-07T10:14:34;1025.3;;;-0.9;58.8
74437;BME280;62868;52.360;30.424;2022-12-07T10:19:17;1025.3;;;-0.9;58.7
74437;BME280;62868;52.360;30.424;2022-12-07T10:24:37;1025.3;;;-1;58.9
74437;BME280;62868;52.360;30.424;2022-12-07T10:30:01;1025.2;;;-1;59
74437;BME280;62868;52.360;30.424;2022-12-07T10:34:38;1025.2;;;-0.9;58.9
74437;BME280;62868;52.360;30.424;2022-12-07T10:40:00;1025.1;;;-0.9;58.9
74437;BME280;62868;52.360;30.424;2022-12-07T10:44:25;1025;;;-0.5;58.7
74437;BME280;62868;52.360;30.424;2022-12-07T10:49:41;1025;;;-0.6;58.8
74437;BME280;62868;52.360;30.424;2022-12-07T10:54:28;1025;;;-0.6;58.9
74437;BME280;62868;52.360;30.424;2022-12-07T11:00:01;1025;;;-0.7;59
74437;BME280;62868;52.360;30.424;2022-12-07T11:05:02;1025;;;-1;59.2
74437;BME280;62868;52.360;30.424;2022-12-07T11:09:21;1024.9;;;-1.1;59.4
74437;BME280;62868;52.360;30.424;2022-12-07T11:14:48;1024.8;;;-1.2;59.4
74437;BME280;62868;52.360;30.424;2022-12-07T11:19:41;1024.8;;;-1.3;59.5
74437;BME280;62868;52.360;30.424;2022-12-07T11:24:50;1024.7;;;-1.4;59.7
74437;BME280;62868;52.360;30.424;2022-12-07T11:29:37;1024.7;;;-1.5;59.9
74437;BME280;62868;52.360;30.424;2022-12-07T11:34:15;1024.7;;;-1.5;60
74437;BME280;62868;52.360;30.424;2022-12-07T11:39:16;1024.7;;;-1.4;59.9
74437;BME280;62868;52.360;30.424;2022-12-07T11:44:59;1024.7;;;-1.4;59.9
74437;BME280;62868;52.360;30.424;2022-12-07T11:49:37;1024.7;;;-1.5;60
74437;BME280;62868;52.360;30.424;2022-12-07T11:54:58;1024.7;;;-1.6;60.2
74437;BME280;62868;52.360;30.424;2022-12-07T11:59:16;1024.6;;;-1.6;60.2
74437;BME280;62868;52.360;30.424;2022-12-07T12:04:47;1024.6;;;-1.5;60.2
74437;BME280;62868;52.360;30.424;2022-12-07T12:09:48;1024.6;;;-1.5;60.3
74437;BME280;62868;52.360;30.424;2022-12-07T12:15:02;1024.5;;;-1.6;60.4
74437;BME280;62868;52.360;30.424;2022-12-07T12:20:00;1024.5;;;-1.6;60.4
74437;BME280;62868;52.360;30.424;2022-12-07T12:24:32;1024.5;;;-1.6;60.5
74437;BME280;62868;52.360;30.424;2022-12-07T12:29:52;1024.5;;;-1.5;60.5
74437;BME280;62868;52.360;30.424;2022-12-07T12:34:39;1024.5;;;-1.6;60.6
74437;BME280;62868;52.360;30.424;2022-12-07T12:40:12;1024.6;;;-1.6;60.7
74437;BME280;62868;52.360;30.424;2022-12-07T12:44:41;1024.6;;;-1.7;60.8
74437;BME280;62868;52.360;30.424;2022-12-07T12:49:35;1024.6;;;-1.7;60.9
74437;BME280;62868;52.360;30.424;2022-12-07T12:54:38;1024.5;;;-1.7;61
74437;BME280;62868;52.360;30.424;2022-12-07T13:00:01;1024.6;;;-1.7;61
74437;BME280;62868;52.360;30.424;2022-12-07T13:04:48;1024.6;;;-1.7;61.1
74437;BME280;62868;52.360;30.424;2022-12-07T13:10:01;1024.6;;;-1.7;61.2
74437;BME280;62868;52.360;30.424;2022-12-07T13:15:31;1024.5;;;-1.7;61.2
74437;BME280;62868;52.360;30.424;2022-12-07T13:19:54;1024.4;;;-1.7;61.3
74437;BME280;62868;52.360;30.424;2022-12-07T13:24:14;1024.4;;;-1.7;61.4
74437;BME280;62868;52.360;30.424;2022-12-07T13:29:44;1024.3;;;-1.7;61.4
74437;BME280;62868;52.360;30.424;2022-12-07T13:34:58;1024.3;;;-1.7;61.5
74437;BME280;62868;52.360;30.424;2022-12-07T13:39:26;1024.3;;;-1.8;61.7
74437;BME280;62868;52.360;30.424;2022-12-07T13:45:16;1024.3;;;-1.7;61.7
74437;BME280;62868;52.360;30.424;2022-12-07T13:49:49;1024.3;;;-1.7;61.8
74437;BME280;62868;52.360;30.424;2022-12-07T13:54:55;1024.2;;;-1.7;61.8
74437;BME280;62868;52.360;30.424;2022-12-07T13:59:32;1024.3;;;-1.7;61.9
74437;BME280;62868;52.360;30.424;2022-12-07T14:04:29;1024.3;;;-1.7;62.1
74437;BME280;62868;52.360;30.424;2022-12-07T14:09:52;1024.3;;;-1.7;62.2
74437;BME280;62868;52.360;30.424;2022-12-07T14:14:57;1024.3;;;-1.7;62.3
74437;BME280;62868;52.360;30.424;2022-12-07T14:19:40;1024.3;;;-1.7;62.5
74437;BME280;62868;52.360;30.424;2022-12-07T14:25:02;1024.3;;;-1.8;62.7
74437;BME280;62868;52.360;30.424;2022-12-07T14:29:18;1024.3;;;-1.8;62.9
74437;BME280;62868;52.360;30.424;2022-12-07T14:34:52;1024.2;;;-1.8;63
74437;BME280;62868;52.360;30.424;2022-12-07T14:39:58;1024;;;-1.7;63.1
74437;BME280;62868;52.360;30.424;2022-12-07T14:44:44;1024;;;-1.7;63.1
74437;BME280;62868;52.360;30.424;2022-12-07T14:49:59;1024;;;-1.6;63.2
74437;BME280;62868;52.360;30.424;2022-12-07T14:54:24;1023.9;;;-1.6;63.2
74437;BME280;62868;52.360;30.424;2022-12-07T14:59:58;1024;;;-1.6;63.3
74437;BME280;62868;52.360;30.424;2022-12-07T15:04:48;1024;;;-1.6;63.4
74437;BME280;62868;52.360;30.424;2022-12-07T15:09:49;1023.9;;;-1.6;63.5
74437;BME280;62868;52.360;30.424;2022-12-07T15:14:32;1023.9;;;-1.7;63.7
74437;BME280;62868;52.360;30.424;2022-12-07T15:19:26;1023.9;;;-1.6;63.9
74437;BME280;62868;52.360;30.424;2022-12-07T15:24:37;1023.9;;;-1.6;63.9
74437;BME280;62868;52.360;30.424;2022-12-07T15:30:00;1023.8;;;-1.6;63.9
74437;BME280;62868;52.360;30.424;2022-12-07T15:34:37;1023.6;;;-1.5;64
74437;BME280;62868;52.360;30.424;2022-12-07T15:39:58;1023.7;;;-1.5;64
74437;BME280;62868;52.360;30.424;2022-12-07T15:44:24;1023.7;;;-1.5;64
74437;BME280;62868;52.360;30.424;2022-12-07T15:49:48;1023.8;;;-1.4;64.1
74437;BME280;62868;52.360;30.424;2022-12-07T15:54:39;1023.9;;;-1.4;64.2
74437;BME280;62868;52.360;30.424;2022-12-07T15:59:39;1023.8;;;-1.4;64.2
74437;BME280;62868;52.360;30.424;2022-12-07T16:04:49;1024;;;-1.4;64.3
74437;BME280;62868;52.360;30.424;2022-12-07T16:09:15;1024;;;-1.4;64.2
74437;BME280;62868;52.360;30.424;2022-12-07T16:14:57;1024.2;;;-1.3;64.2
74437;BME280;62868;52.360;30.424;2022-12-07T16:19:47;1024.2;;;-1.3;64.2
74437;BME280;62868;52.360;30.424;2022-12-07T16:24:51;1024.2;;;-1.3;64.2
74437;BME280;62868;52.360;30.424;2022-12-07T16:29:35;1024.2;;;-1.3;64.3
74437;BME280;62868;52.360;30.424;2022-12-07T16:34:25;1024.1;;;-1.3;64.4
74437;BME280;62868;52.360;30.424;2022-12-07T16:39:25;1024.1;;;-1.4;64.5
74437;BME280;62868;52.360;30.424;2022-12-07T16:44:55;1024.1;;;-1.4;64.5
74437;BME280;62868;52.360;30.424;2022-12-07T16:49:15;1024.1;;;-1.4;64.7
74437;BME280;62868;52.360;30.424;2022-12-07T16:55:01;1024.1;;;-1.4;64.8
74437;BME280;62868;52.360;30.424;2022-12-07T16:59:27;1024;;;-1.4;64.9
74437;BME280;62868;52.360;30.424;2022-12-07T17:04:45;1024;;;-1.4;64.9
74437;BME280;62868;52.360;30.424;2022-12-07T17:09:25;1024;;;-1.4;64.9
74437;BME280;62868;52.360;30.424;2022-12-07T17:14:59;1023.9;;;-1.4;65.1
74437;BME280;62868;52.360;30.424;2022-12-07T17:19:59;1023.9;;;-1.4;65.2
74437;BME280;62868;52.360;30.424;2022-12-07T17:24:15;1024;;;-1.4;65.3
74437;BME280;62868;52.360;30.424;2022-12-07T17:29:59;1024;;;-1.4;65.3
74437;BME280;62868;52.360;30.424;2022-12-07T17:34:57;1023.9;;;-1.4;65.4
74437;BME280;62868;52.360;30.424;2022-12-07T17:39:51;1023.9;;;-1.4;65.4
74437;BME280;62868;52.360;30.424;2022-12-07T17:44:33;1023.7;;;-1.4;65.5
74437;BME280;62868;52.360;30.424;2022-12-07T17:49:26;1023.8;;;-1.3;65.5
74437;BME280;62868;52.360;30.424;2022-12-07T17:54:27;1023.8;;;-1.3;65.4
74437;BME280;62868;52.360;30.424;2022-12-07T17:59:57;1023.8;;;-1.3;65.5
74437;BME280;62868;52.360;30.424;2022-12-07T18:04:27;1023.9;;;-1.3;65.5
74437;BME280;62868;52.360;30.424;2022-12-07T18:09:59;1023.9;;;-1.3;65.6
74437;BME280;62868;52.360;30.424;2022-12-07T18:14:15;1023.9;;;-1.3;65.7
74437;BME280;62868;52.360;30.424;2022-12-07T18:19:27;1024;;;-1.3;65.8
74437;BME280;62868;52.360;30.424;2022-12-07T18:24:49;1024;;;-1.3;65.8
74437;BME280;62868;52.360;30.424;2022-12-07T18:29:47;1023.9;;;-1.3;65.8
74437;BME280;62868;52.360;30.424;2022-12-07T18:34:49;1023.9;;;-1.3;65.9
74437;BME280;62868;52.360;30.424;2022-12-07T18:39:15;1023.9;;;-1.3;65.9
74437;BME280;62868;52.360;30.424;2022-12-07T18:44:25;1023.8;;;-1.3;66
74437;BME280;62868;52.360;30.424;2022-12-07T18:49:45;1023.7;;;-1.4;66.1
74437;BME280;62868;52.360;30.424;2022-12-07T18:54:50;1023.6;;;-1.4;66.1
74437;BME280;62868;52.360;30.424;2022-12-07T18:59:15;1023.8;;;-1.4;66.2
74437;BME280;62868;52.360;30.424;2022-12-07T19:04:15;1023.8;;;-1.3;66.2
74437;BME280;62868;52.360;30.424;2022-12-07T19:09:16;1023.8;;;-1.3;66.2
74437;BME280;62868;52.360;30.424;2022-12-07T19:14:58;1023.7;;;-1.3;66.2
74437;BME280;62868;52.360;30.424;2022-12-07T19:19:51;1023.7;;;-1.3;66.3
74437;BME280;62868;52.360;30.424;2022-12-07T19:24:59;1023.8;;;-1.3;66.4
74437;BME280;62868;52.360;30.424;2022-12-07T19:29:15;1023.8;;;-1.3;66.3
74437;BME280;62868;52.360;30.424;2022-12-07T19:34:27;1023.8;;;-1.3;66.3
74437;BME280;62868;52.360;30.424;2022-12-07T19:39:25;1023.8;;;-1.3;66.3
74437;BME280;62868;52.360;30.424;2022-12-07T19:44:45;1023.7;;;-1.3;66.4
74437;BME280;62868;52.360;30.424;2022-12-07T19:49:47;1023.7;;;-1.3;66.4
74437;BME280;62868;52.360;30.424;2022-12-07T19:54:25;1023.6;;;-1.3;66.4
74437;BME280;62868;52.360;30.424;2022-12-07T19:59:15;1023.5;;;-1.3;66.5
74437;BME280;62868;52.360;30.424;2022-12-07T20:04:59;1023.5;;;-1.3;66.6
74437;BME280;62868;52.360;30.424;2022-12-07T20:09:51;1023.5;;;-1.4;66.7
74437;BME280;62868;52.360;30.424;2022-12-07T20:14:15;1023.5;;;-1.4;66.6
74437;BME280;62868;52.360;30.424;2022-12-07T20:19:15;1023.5;;;-1.4;66.7
74437;BME280;62868;52.360;30.424;2022-12-07T20:24:15;1023.5;;;-1.3;66.7
74437;BME280;62868;52.360;30.424;2022-12-07T20:29:57;1023.5;;;-1.3;66.8
74437;BME280;62868;52.360;30.424;2022-12-07T20:34:35;1023.5;;;-1.3;66.8
74437;BME280;62868;52.360;30.424;2022-12-07T20:39:59;1023.5;;;-1.4;66.9
74437;BME280;62868;52.360;30.424;2022-12-07T20:44:25;1023.5;;;-1.4;67
74437;BME280;62868;52.360;30.424;2022-12-07T20:49:25;1023.4;;;-1.4;67
74437;BME280;62868;52.360;30.424;2022-12-07T20:54:25;1023.5;;;-1.4;67.1
74437;BME280;62868;52.360;30.424;2022-12-07T20:59:45;1023.5;;;-1.3;67.2
74437;BME280;62868;52.360;30.424;2022-12-07T21:04:59;1023.5;;;-1.3;67.2
74437;BME280;62868;52.360;30.424;2022-12-07T21:09:27;1023.5;;;-1.3;67.3
74437;BME280;62868;52.360;30.424;2022-12-07T21:14:15;1023.5;;;-1.3;67.3
74437;BME280;62868;52.360;30.424;2022-12-07T21:20:01;1023.6;;;-1.3;67.3
74437;BME280;62868;52.360;30.424;2022-12-07T21:24:29;1023.6;;;-1.2;67.2
74437;BME280;62868;52.360;30.424;2022-12-07T21:29:35;1023.6;;;-1.2;67.2
74437;BME280;62868;52.360;30.424;2022-12-07T21:34:15;1023.5;;;-1.1;67.2
74437;BME280;62868;52.360;30.424;2022-12-07T21:39:15;1023.5;;;-1.1;67.2
74437;BME280;62868;52.360;30.424;2022-12-07T21:44:55;1023.5;;;-1.1;67.2
74437;BME280;62868;52.360;30.424;2022-12-07T21:49:33;1023.4;;;-1.1;67.2
74437;BME280;62868;52.360;30.424;2022-12-07T21:54:57;1023.4;;;-1.1;67.2
74437;BME280;62868;52.360;30.424;2022-12-07T21:59:23;1023.5;;;-1.1;67.2
74437;BME280;62868;52.360;30.424;2022-12-07T22:04:15;1023.5;;;-1.1;67.2
74437;BME280;62868;52.360;30.424;2022-12-07T22:09:21;1023.5;;;-1.1;67.2
74437;BME280;62868;52.360;30.424;2022-12-07T22:14:39;1023.4;;;-1.1;67.3
74437;BME280;62868;52.360;30.424;2022-12-07T22:19:43;1023.4;;;-1.1;67.3
74437;BME280;62868;52.360;30.424;2022-12-07T22:24:57;1023.4;;;-1.1;67.3
74437;BME280;62868;52.360;30.424;2022-12-07T22:29:15;1023.4;;;-1.1;67.3
74437;BME280;62868;52.360;30.424;2022-12-07T22:34:55;1023.4;;;-1.1;67.3
74437;BME280;62868;52.360;30.424;2022-12-07T22:39:57;1023.4;;;-1;67.3
74437;BME280;62868;52.360;30.424;2022-12-07T22:44:29;1023.3;;;-1;67.3
74437;BME280;62868;52.360;30.424;2022-12-07T22:49:37;1023.3;;;-1.1;67.3
74437;BME280;62868;52.360;30.424;2022-12-07T22:54:15;1023.3;;;-1;67.3
74437;BME280;62868;52.360;30.424;2022-12-07T22:59:55;1023.3;;;-1;67.3
74437;BME280;62868;52.360;30.424;2022-12-07T23:04:31;1023.3;;;-1;67.3
74437;BME280;62868;52.360;30.424;2022-12-07T23:09:41;1023.3;;;-1.1;67.4
74437;BME280;62868;52.360;30.424;2022-12-07T23:14:29;1023.3;;;-1;67.4
74437;BME280;62868;52.360;30.424;2022-12-07T23:19:15;1023.2;;;-1;67.4
74437;BME280;62868;52.360;30.424;2022-12-07T23:24:31;1023.1;;;-1;67.5
74437;BME280;62868;52.360;30.424;2022-12-07T23:29:41;1023.2;;;-1;67.5
74437;BME280;62868;52.360;30.424;2022-12-07T23:34:45;1023.2;;;-1;67.6
74437;BME280;62868;52.360;30.424;2022-12-07T23:39:43;1023.1;;;-1;67.6
74437;BME280;62868;52.360;30.424;2022-12-07T23:44:21;1023.1;;;-1;67.6
74437;BME280;62868;52.360;30.424;2022-12-07T23:49:53;1023.3;;;-0.9;67.7
74437;BME280;62868;52.360;30.424;2022-12-07T23:54:55;1023.3;;;-0.9;67.7
74437;BME280;62868;52.360;30.424;2022-12-07T23:59:23;1023.4;;;-0.9;67.7
